Time;durP1;ratioP1;P1;durP2;ratioP2;P2;SDS_P1;SDS_P2;PMS_P1;PMS_P2;Temp;Humidity;BMP_temperature;BMP_pressure;BME280_temperature;BME280_humidity;BME280_pressure;Samples;Min_cycle;Max_cycle;Signal;HPM_P1;HPM_P2
2022/05/05 00:00:50;;;;;;;24.83;14.02;;;15.30;96.60;;;;;;4960458;28;20076;-70
2022/05/05 00:03:16;;;;;;;22.02;13.32;;;15.20;97.00;;;;;;4969210;28;20102;-69
2022/05/05 00:05:41;;;;;;;21.20;14.38;;;15.20;96.70;;;;;;4968379;28;20031;-69
2022/05/05 00:08:09;;;;;;;21.70;14.82;;;15.20;97.80;;;;;;4961941;28;20387;-69
2022/05/05 00:16:05;;;;;;;27.15;15.77;;;14.80;97.40;;;;;;4963371;28;20058;-69
2022/05/05 00:18:31;;;;;;;25.33;16.13;;;14.80;97.80;;;;;;4968265;28;20035;-69
2022/05/05 00:20:56;;;;;;;24.48;14.88;;;14.80;97.50;;;;;;4968597;28;20030;-69
2022/05/05 00:23:22;;;;;;;22.08;14.73;;;14.80;97.60;;;;;;4969615;28;20031;-69
2022/05/05 00:25:47;;;;;;;24.17;16.15;;;14.80;98.10;;;;;;4970943;28;20023;-69
2022/05/05 00:28:13;;;;;;;24.20;15.90;;;14.80;97.50;;;;;;4965898;28;20404;-69
2022/05/05 00:30:39;;;;;;;23.58;15.43;;;14.70;97.70;;;;;;4965441;28;20030;-69
2022/05/05 00:33:04;;;;;;;27.13;16.27;;;14.70;97.70;;;;;;4965185;28;20107;-69
2022/05/05 00:35:30;;;;;;;23.10;15.57;;;14.70;98.40;;;;;;4962015;28;20111;-69
2022/05/05 00:37:56;;;;;;;24.38;16.90;;;14.70;97.60;;;;;;4966155;28;20486;-69
2022/05/05 00:40:22;;;;;;;21.05;14.80;;;14.60;96.90;;;;;;4965302;28;20422;-69
2022/05/05 00:42:48;;;;;;;26.23;14.77;;;14.60;98.10;;;;;;4982861;28;20057;-69
2022/05/05 00:45:13;;;;;;;23.50;14.90;;;14.50;98.60;;;;;;4968689;28;20092;-69
2022/05/05 00:47:39;;;;;;;20.77;15.52;;;14.30;99.10;;;;;;4962759;28;20387;-69
2022/05/05 00:50:06;;;;;;;29.98;14.18;;;14.30;98.80;;;;;;4967857;28;20027;-69
2022/05/05 00:52:31;;;;;;;26.80;16.13;;;14.30;98.20;;;;;;4963275;28;20036;-69
2022/05/05 00:54:59;;;;;;;24.27;14.55;;;14.30;97.90;;;;;;4961355;28;20125;-69
2022/05/05 00:57:25;;;;;;;23.90;14.68;;;14.30;98.50;;;;;;4963426;28;20020;-69
2022/05/05 00:59:52;;;;;;;26.05;15.05;;;14.30;97.50;;;;;;4967691;28;20092;-69
2022/05/05 01:02:18;;;;;;;24.15;15.38;;;14.30;97.60;;;;;;4967707;28;20030;-69
2022/05/05 01:04:46;;;;;;;22.60;14.48;;;14.20;97.80;;;;;;4970328;28;20081;-69
2022/05/05 01:07:13;;;;;;;22.63;15.20;;;14.20;97.80;;;;;;4968754;28;20122;-68
2022/05/05 01:09:39;;;;;;;26.65;16.65;;;14.10;97.80;;;;;;4970186;28;20084;-69
2022/05/05 01:12:05;;;;;;;22.98;14.82;;;14.10;98.00;;;;;;4970016;28;20027;-69
2022/05/05 01:14:31;;;;;;;23.85;15.48;;;14.00;98.50;;;;;;4969230;28;20471;-69
2022/05/05 01:16:59;;;;;;;23.58;15.98;;;14.00;98.10;;;;;;4970885;28;20072;-68
2022/05/05 01:19:24;;;;;;;30.23;15.15;;;14.00;98.50;;;;;;4971896;28;20035;-68
2022/05/05 01:21:57;;;;;;;26.15;15.98;;;14.00;98.60;;;;;;4969732;28;20022;-68
2022/05/05 01:28:10;;;;;;;24.75;14.48;;;14.00;98.80;;;;;;4970737;28;20035;-68
2022/05/05 01:29:54;;;;;;;22.52;14.13;;;13.90;98.80;;;;;;4968327;28;20114;-68
2022/05/05 01:32:20;;;;;;;25.10;15.45;;;13.90;98.30;;;;;;4965793;28;20034;-68
2022/05/05 01:34:45;;;;;;;22.55;14.43;;;13.80;98.40;;;;;;4968340;28;20035;-68
2022/05/05 01:37:11;;;;;;;22.45;15.15;;;13.80;98.00;;;;;;4971368;28;20031;-68
2022/05/05 01:39:37;;;;;;;22.65;14.85;;;13.80;98.90;;;;;;4970490;28;20446;-68
2022/05/05 01:42:02;;;;;;;22.65;14.45;;;13.80;98.60;;;;;;4966628;28;20031;-68
2022/05/05 01:44:28;;;;;;;20.85;13.98;;;13.80;98.40;;;;;;4970759;28;20845;-68
2022/05/05 01:46:54;;;;;;;21.98;14.23;;;13.80;98.50;;;;;;4967198;28;20034;-70
2022/05/05 01:49:19;;;;;;;21.40;14.45;;;13.80;98.80;;;;;;4967292;28;20088;-70
2022/05/05 01:51:45;;;;;;;20.33;14.02;;;13.80;99.20;;;;;;4964682;28;20135;-70
2022/05/05 01:54:11;;;;;;;22.92;15.27;;;13.80;98.70;;;;;;4970123;28;20081;-70
2022/05/05 01:56:37;;;;;;;26.25;16.00;;;13.70;98.30;;;;;;4966134;28;20461;-70
2022/05/05 01:59:02;;;;;;;23.17;15.10;;;13.70;99.00;;;;;;4967475;28;20137;-70
2022/05/05 02:01:28;;;;;;;20.55;14.60;;;13.80;99.80;;;;;;4967832;28;20058;-69
2022/05/05 02:03:54;;;;;;;21.27;13.93;;;13.80;99.90;;;;;;4966227;28;20383;-70
2022/05/05 02:06:19;;;;;;;26.15;14.77;;;13.70;99.90;;;;;;4967133;28;20030;-69
2022/05/05 02:08:45;;;;;;;20.30;14.15;;;13.70;99.00;;;;;;4968595;28;20403;-69
2022/05/05 02:11:10;;;;;;;20.88;13.75;;;13.70;99.00;;;;;;4963186;28;20030;-70
2022/05/05 02:13:36;;;;;;;22.50;14.98;;;13.70;99.10;;;;;;4968577;28;20031;-70
2022/05/05 02:16:02;;;;;;;23.05;14.63;;;13.70;99.40;;;;;;4970956;28;20035;-70
2022/05/05 02:18:27;;;;;;;23.85;15.18;;;13.60;99.30;;;;;;4970413;28;20027;-70
2022/05/05 02:20:53;;;;;;;23.90;13.90;;;13.60;99.70;;;;;;4965693;28;20035;-69
2022/05/05 02:23:19;;;;;;;21.02;13.45;;;13.60;99.50;;;;;;4965045;28;20379;-70
2022/05/05 02:25:45;;;;;;;22.60;14.68;;;13.70;99.60;;;;;;4965404;28;20038;-69
2022/05/05 02:28:10;;;;;;;19.38;13.18;;;13.60;99.40;;;;;;4966637;28;20027;-69
2022/05/05 02:30:36;;;;;;;21.30;13.77;;;13.60;99.40;;;;;;4968286;28;20031;-69
2022/05/05 02:33:02;;;;;;;21.98;14.60;;;13.60;99.20;;;;;;4970507;28;20031;-69
2022/05/05 02:35:27;;;;;;;22.50;13.90;;;13.60;99.90;;;;;;4966978;28;20109;-70
2022/05/05 02:40:38;;;;;;;22.45;14.52;;;13.60;99.80;;;;;;4969047;28;20050;-69
2022/05/05 02:43:04;;;;;;;23.08;13.38;;;13.50;99.90;;;;;;4968603;28;20027;-69
2022/05/05 02:45:30;;;;;;;21.90;13.48;;;13.40;99.90;;;;;;4966629;28;20027;-69
2022/05/05 02:47:56;;;;;;;19.65;12.95;;;13.40;99.90;;;;;;4968577;28;20398;-69
2022/05/05 02:50:22;;;;;;;22.17;14.07;;;13.50;99.90;;;;;;4970489;28;20026;-69
2022/05/05 02:52:48;;;;;;;21.83;15.15;;;13.50;99.90;;;;;;4969705;28;20455;-69
2022/05/05 02:55:14;;;;;;;18.13;12.52;;;13.40;99.90;;;;;;4964847;28;20030;-69
2022/05/05 02:57:40;;;;;;;25.73;16.08;;;13.50;99.90;;;;;;4969757;28;20031;-69
2022/05/05 03:00:10;;;;;;;23.88;15.35;;;13.50;99.90;;;;;;4968700;28;20135;-69
2022/05/05 03:02:37;;;;;;;22.58;14.70;;;13.50;99.90;;;;;;4968150;28;20018;-69
2022/05/05 03:05:03;;;;;;;22.02;14.98;;;13.50;99.90;;;;;;4969857;28;20429;-69
2022/05/05 03:07:29;;;;;;;24.73;16.05;;;13.60;99.90;;;;;;4969608;28;20033;-69
2022/05/05 03:09:55;;;;;;;22.63;14.65;;;13.50;99.90;;;;;;4962141;28;20535;-68
2022/05/05 03:12:20;;;;;;;24.30;15.07;;;13.50;99.90;;;;;;4968161;28;20109;-69
2022/05/05 03:14:47;;;;;;;22.17;14.48;;;13.50;99.90;;;;;;4966271;28;20115;-69
2022/05/05 03:17:13;;;;;;;21.77;15.10;;;13.50;99.90;;;;;;4967764;28;20101;-68
2022/05/05 03:19:39;;;;;;;21.17;14.30;;;13.50;99.90;;;;;;4968068;28;20030;-69
2022/05/05 03:22:05;;;;;;;24.10;15.80;;;13.50;99.90;;;;;;4969661;28;20034;-69
2022/05/05 03:24:31;;;;;;;21.63;14.32;;;13.50;99.90;;;;;;4965673;28;20392;-69
2022/05/05 03:26:57;;;;;;;22.25;14.60;;;13.50;99.90;;;;;;4970073;28;20031;-69
2022/05/05 03:29:22;;;;;;;26.15;14.77;;;13.50;99.90;;;;;;4968851;28;20026;-68
2022/05/05 03:31:48;;;;;;;25.38;14.18;;;13.50;99.90;;;;;;4968827;28;20030;-69
2022/05/05 03:34:13;;;;;;;23.30;14.88;;;13.50;99.90;;;;;;4965288;28;20379;-69
2022/05/05 03:36:39;;;;;;;24.80;15.15;;;13.50;99.90;;;;;;4968502;28;20031;-68
2022/05/05 03:39:05;;;;;;;23.45;14.80;;;13.60;99.90;;;;;;4964170;28;20039;-68
2022/05/05 03:41:31;;;;;;;23.55;14.88;;;13.60;99.90;;;;;;4970854;28;20384;-69
2022/05/05 03:43:57;;;;;;;23.92;15.48;;;13.50;99.90;;;;;;4962370;28;20042;-69
2022/05/05 03:46:22;;;;;;;23.95;15.13;;;13.50;99.90;;;;;;4966849;28;20027;-69
2022/05/05 03:48:48;;;;;;;24.95;15.35;;;13.50;99.90;;;;;;4966645;28;20106;-69
2022/05/05 03:51:14;;;;;;;28.25;14.90;;;13.50;99.90;;;;;;4966240;28;20027;-69
2022/05/05 03:53:39;;;;;;;22.10;15.77;;;13.40;99.90;;;;;;4967327;28;20452;-69
2022/05/05 03:56:05;;;;;;;22.75;15.13;;;13.40;99.90;;;;;;4961705;28;20133;-69
2022/05/05 03:58:31;;;;;;;20.38;14.43;;;13.50;99.90;;;;;;4962693;28;20098;-69
2022/05/05 04:00:57;;;;;;;21.10;14.23;;;13.50;99.90;;;;;;4965733;28;20460;-69
2022/05/05 04:03:32;;;;;;;22.67;15.02;;;13.50;99.90;;;;;;4964524;28;20122;-69
2022/05/05 04:05:58;;;;;;;25.98;15.82;;;13.50;99.90;;;;;;4960625;28;20055;-70
2022/05/05 04:08:25;;;;;;;22.77;15.55;;;13.50;99.90;;;;;;4965065;28;20019;-70
2022/05/05 04:10:51;;;;;;;27.75;16.50;;;13.50;99.90;;;;;;4965645;28;20090;-69
2022/05/05 04:13:16;;;;;;;26.77;16.10;;;13.50;99.90;;;;;;4963122;28;20118;-69
2022/05/05 04:15:42;;;;;;;24.02;15.75;;;13.50;99.90;;;;;;4965419;28;20372;-69
2022/05/05 04:18:07;;;;;;;25.40;15.55;;;13.50;99.90;;;;;;4962416;28;20068;-69
2022/05/05 04:20:33;;;;;;;21.30;14.85;;;13.50;99.90;;;;;;4959531;28;20057;-69
2022/05/05 04:22:59;;;;;;;23.10;14.75;;;13.60;99.90;;;;;;4963251;28;20387;-69
2022/05/05 04:25:24;;;;;;;24.30;15.23;;;13.40;99.90;;;;;;4965840;28;20039;-69
2022/05/05 04:27:51;;;;;;;26.98;15.82;;;13.40;99.90;;;;;;4965194;28;20030;-69
2022/05/05 04:30:17;;;;;;;20.40;14.20;;;13.40;99.90;;;;;;4968289;28;20042;-68
2022/05/05 04:32:45;;;;;;;20.95;14.88;;;13.50;99.90;;;;;;4968326;28;20498;-69
2022/05/05 04:35:11;;;;;;;24.85;14.95;;;13.50;99.90;;;;;;4962840;28;20037;-69
2022/05/05 04:37:39;;;;;;;25.05;16.25;;;13.40;99.90;;;;;;4966244;28;20110;-69
2022/05/05 04:40:05;;;;;;;24.65;14.57;;;13.50;99.90;;;;;;4969727;28;20118;-69
2022/05/05 04:42:31;;;;;;;20.70;14.25;;;13.50;99.90;;;;;;4968461;28;20037;-69
2022/05/05 04:44:57;;;;;;;22.13;15.18;;;13.60;99.90;;;;;;4967248;28;20106;-69
2022/05/05 04:47:22;;;;;;;20.08;13.98;;;13.60;99.90;;;;;;4969807;28;20483;-69
2022/05/05 04:49:48;;;;;;;22.80;14.23;;;13.50;99.90;;;;;;4969370;28;20607;-69
2022/05/05 04:52:13;;;;;;;23.15;14.88;;;13.60;99.90;;;;;;4972128;28;20098;-69
2022/05/05 04:54:39;;;;;;;22.40;14.77;;;13.60;99.90;;;;;;4967488;28;20046;-69
2022/05/05 04:57:05;;;;;;;25.55;14.70;;;13.60;99.90;;;;;;4968700;28;20023;-69
2022/05/05 04:59:30;;;;;;;22.25;14.77;;;13.60;99.90;;;;;;4969523;28;20158;-69
2022/05/05 05:01:56;;;;;;;18.27;12.50;;;13.60;99.90;;;;;;4970618;28;20026;-69
2022/05/05 05:04:21;;;;;;;21.65;13.93;;;13.60;99.90;;;;;;4969760;28;20038;-67
2022/05/05 05:06:47;;;;;;;21.80;13.70;;;13.60;99.90;;;;;;4964250;28;20027;-69
2022/05/05 05:09:13;;;;;;;24.23;14.32;;;13.60;99.90;;;;;;4968235;28;20494;-69
2022/05/05 05:11:38;;;;;;;25.33;15.00;;;13.60;99.90;;;;;;4967987;28;20038;-70
2022/05/05 05:14:04;;;;;;;24.65;14.77;;;13.70;99.90;;;;;;4966646;28;20034;-69
2022/05/05 05:16:29;;;;;;;22.95;14.75;;;13.60;99.90;;;;;;4970422;28;20113;-67
2022/05/05 05:18:55;;;;;;;21.55;13.82;;;13.50;99.90;;;;;;4969540;28;20034;-68
2022/05/05 05:21:22;;;;;;;22.35;14.95;;;13.60;99.90;;;;;;4970013;28;20035;-68
2022/05/05 05:23:47;;;;;;;23.90;14.45;;;13.60;99.90;;;;;;4967587;28;20038;-67
2022/05/05 05:26:16;;;;;;;25.85;16.15;;;13.70;99.90;;;;;;4969409;28;20031;-68
2022/05/05 05:28:42;;;;;;;21.33;14.70;;;13.70;99.90;;;;;;4968082;28;20030;-67
2022/05/05 05:31:08;;;;;;;22.95;14.90;;;13.80;99.90;;;;;;4969468;28;20019;-68
2022/05/05 05:33:34;;;;;;;22.60;14.80;;;13.80;99.90;;;;;;4967241;28;20035;-68
2022/05/05 05:35:59;;;;;;;29.83;16.05;;;13.90;99.90;;;;;;4969778;28;20027;-68
2022/05/05 05:38:25;;;;;;;24.15;15.15;;;14.00;99.90;;;;;;4962157;28;20368;-68
2022/05/05 05:40:51;;;;;;;26.20;15.48;;;14.00;99.90;;;;;;4966878;28;20062;-68
2022/05/05 05:43:17;;;;;;;21.73;15.00;;;14.00;99.90;;;;;;4969423;28;20101;-68
2022/05/05 05:45:42;;;;;;;24.00;15.18;;;14.00;99.90;;;;;;4966090;28;20023;-69
2022/05/05 05:48:08;;;;;;;21.17;14.25;;;14.00;99.90;;;;;;4968832;28;20015;-69
2022/05/05 05:50:34;;;;;;;28.83;15.68;;;14.10;99.90;;;;;;4969789;28;20042;-69
2022/05/05 05:53:00;;;;;;;21.75;14.40;;;14.10;99.90;;;;;;4970152;28;20098;-69
2022/05/05 05:55:26;;;;;;;25.00;14.77;;;14.10;99.90;;;;;;4969754;28;20113;-69
2022/05/05 05:57:52;;;;;;;20.70;14.63;;;14.20;99.90;;;;;;4971149;28;20030;-69
2022/05/05 06:00:18;;;;;;;21.92;13.35;;;14.10;99.90;;;;;;4970862;28;20035;-70
2022/05/05 06:05:29;;;;;;;25.88;14.27;;;14.10;99.90;;;;;;4963998;28;20037;-69
2022/05/05 06:07:59;;;;;;;22.58;14.52;;;14.10;99.90;;;;;;4964717;28;20371;-68
2022/05/05 06:10:25;;;;;;;19.95;14.20;;;14.20;99.90;;;;;;4942225;28;20513;-68
2022/05/05 06:12:51;;;;;;;18.48;12.20;;;14.20;99.90;;;;;;4967126;28;20042;-68
2022/05/05 06:15:17;;;;;;;24.08;13.95;;;14.30;99.90;;;;;;4969441;28;20027;-68
2022/05/05 06:17:43;;;;;;;22.60;14.32;;;14.20;99.90;;;;;;4968713;28;20412;-68
2022/05/05 06:20:09;;;;;;;28.77;14.80;;;14.20;99.90;;;;;;4964682;28;20128;-68
2022/05/05 06:22:35;;;;;;;25.92;13.05;;;14.20;99.90;;;;;;4969451;28;20031;-68
2022/05/05 06:25:01;;;;;;;23.85;13.13;;;14.20;99.90;;;;;;4963946;28;20121;-68
2022/05/05 06:27:27;;;;;;;25.48;14.45;;;14.20;99.90;;;;;;4969004;28;20069;-68
2022/05/05 06:29:52;;;;;;;24.40;13.52;;;14.30;99.90;;;;;;4969286;28;20054;-68
2022/05/05 06:32:18;;;;;;;23.30;13.32;;;14.30;99.90;;;;;;4969702;28;20076;-69
2022/05/05 06:34:44;;;;;;;25.58;12.73;;;14.40;99.90;;;;;;4965617;28;20035;-68
2022/05/05 06:37:09;;;;;;;20.17;11.95;;;14.30;99.90;;;;;;4968495;28;20026;-68
2022/05/05 06:39:35;;;;;;;26.83;13.18;;;14.40;99.90;;;;;;4967894;28;20034;-68
2022/05/05 06:42:01;;;;;;;22.30;12.05;;;14.50;99.90;;;;;;4965917;28;20019;-68
2022/05/05 06:44:27;;;;;;;22.52;11.90;;;14.50;99.90;;;;;;4966342;28;20315;-68
2022/05/05 06:46:52;;;;;;;23.25;12.27;;;14.60;99.90;;;;;;4963663;28;20029;-68
2022/05/05 06:49:18;;;;;;;18.27;11.30;;;14.70;99.90;;;;;;4967840;28;20035;-68
2022/05/05 06:51:44;;;;;;;17.90;11.52;;;14.80;99.90;;;;;;4968559;28;20027;-67
2022/05/05 06:54:10;;;;;;;19.75;11.40;;;14.90;99.90;;;;;;4969213;28;20715;-68
2022/05/05 06:56:36;;;;;;;21.88;11.88;;;15.10;99.90;;;;;;4966306;28;20023;-68
2022/05/05 06:59:02;;;;;;;25.45;12.38;;;15.10;99.90;;;;;;4963783;28;20027;-68
2022/05/05 07:06:56;;;;;;;20.27;13.00;;;15.60;99.90;;;;;;4962751;28;20077;-68
2022/05/05 07:12:06;;;;;;;25.67;14.30;;;15.70;99.90;;;;;;4966910;28;20046;-68
2022/05/05 07:14:31;;;;;;;28.50;14.85;;;15.80;99.90;;;;;;4968375;28;20038;-68
2022/05/05 07:16:57;;;;;;;29.60;15.93;;;16.00;99.90;;;;;;4966936;28;20027;-68
2022/05/05 07:19:23;;;;;;;30.88;15.75;;;16.00;99.90;;;;;;4969612;28;20043;-68
2022/05/05 07:21:48;;;;;;;40.20;21.08;;;15.90;99.90;;;;;;4967583;28;20038;-69
2022/05/05 07:24:14;;;;;;;47.85;26.65;;;16.00;99.90;;;;;;4968995;28;20497;-69
2022/05/05 07:26:40;;;;;;;49.30;28.73;;;16.10;99.90;;;;;;4965472;28;20080;-68
2022/05/05 07:29:05;;;;;;;37.45;22.83;;;16.30;99.90;;;;;;4964557;28;20027;-68
2022/05/05 07:31:31;;;;;;;44.60;25.95;;;16.30;99.90;;;;;;4966788;28;20384;-68
2022/05/05 07:33:57;;;;;;;44.25;24.38;;;16.40;99.90;;;;;;4964138;28;20023;-68
2022/05/05 07:36:23;;;;;;;49.58;26.67;;;16.50;99.90;;;;;;4966281;28;20471;-68
2022/05/05 07:38:49;;;;;;;43.75;25.88;;;16.40;99.90;;;;;;4965159;28;20034;-68
2022/05/05 07:41:14;;;;;;;49.88;27.50;;;16.50;99.90;;;;;;4965863;28;20042;-68
2022/05/05 07:43:40;;;;;;;47.45;29.15;;;16.60;99.90;;;;;;4965408;28;20023;-68
2022/05/05 07:46:06;;;;;;;52.53;29.10;;;16.60;99.90;;;;;;4967261;28;20027;-68
2022/05/05 07:48:31;;;;;;;48.42;29.35;;;16.80;99.90;;;;;;4965377;28;20030;-69
2022/05/05 07:50:58;;;;;;;43.72;27.38;;;16.90;99.90;;;;;;4966701;28;20443;-68
2022/05/05 07:53:24;;;;;;;45.60;27.60;;;17.10;99.90;;;;;;4962906;28;20529;-69
2022/05/05 07:55:49;;;;;;;44.75;27.38;;;17.10;99.90;;;;;;4966142;28;20027;-68
2022/05/05 07:58:15;;;;;;;51.28;31.17;;;17.10;99.90;;;;;;4965308;28;20030;-68
2022/05/05 08:00:41;;;;;;;50.47;30.90;;;17.20;99.90;;;;;;4962074;28;20039;-69
2022/05/05 08:03:06;;;;;;;45.42;26.23;;;17.30;99.90;;;;;;4960908;28;20034;-69
2022/05/05 08:05:32;;;;;;;43.72;26.23;;;17.40;99.90;;;;;;4964212;28;20527;-69
2022/05/05 08:07:57;;;;;;;46.92;27.40;;;17.40;99.90;;;;;;4964325;28;20029;-69
2022/05/05 08:10:24;;;;;;;52.67;29.77;;;17.50;99.90;;;;;;4965614;28;20035;-68
2022/05/05 08:12:49;;;;;;;44.65;26.60;;;17.50;99.90;;;;;;4969914;28;20058;-69
2022/05/05 08:15:16;;;;;;;53.45;30.98;;;17.50;99.90;;;;;;4984162;28;20066;-68
2022/05/05 08:17:43;;;;;;;47.17;28.63;;;17.20;99.90;;;;;;4968173;28;20075;-69
2022/05/05 08:20:09;;;;;;;52.40;30.30;;;17.30;99.90;;;;;;4969883;28;20047;-69
2022/05/05 08:22:36;;;;;;;50.92;29.42;;;17.50;99.90;;;;;;4970647;28;20015;-69
2022/05/05 08:30:31;;;;;;;50.38;31.75;;;17.50;99.90;;;;;;4970303;28;20564;-68
2022/05/05 08:32:57;;;;;;;54.85;31.77;;;17.40;99.90;;;;;;4970989;28;20019;-69
2022/05/05 08:35:22;;;;;;;49.83;31.05;;;17.50;99.90;;;;;;4970944;28;20035;-68
2022/05/05 08:37:52;;;;;;;51.65;32.83;;;17.60;99.90;;;;;;4971173;28;20102;-69
2022/05/05 08:40:18;;;;;;;64.15;33.58;;;17.80;99.90;;;;;;4971248;28;20035;-69
2022/05/05 08:42:45;;;;;;;57.35;33.50;;;17.80;99.90;;;;;;4970349;28;20031;-69
2022/05/05 08:45:10;;;;;;;56.67;35.00;;;17.90;99.90;;;;;;4968748;28;20030;-68
2022/05/05 08:47:36;;;;;;;58.83;33.95;;;17.90;99.90;;;;;;4968944;28;20488;-68
2022/05/05 08:50:02;;;;;;;55.10;33.75;;;17.90;99.20;;;;;;4967679;28;20042;-68
2022/05/05 08:52:35;;;;;;;52.42;32.38;;;18.00;99.90;;;;;;4969322;28;20034;-69
2022/05/05 08:55:02;;;;;;;55.83;34.47;;;17.90;99.80;;;;;;4967937;28;20122;-68
2022/05/05 08:57:28;;;;;;;57.83;35.13;;;18.00;99.90;;;;;;4969278;28;20526;-66
2022/05/05 08:59:57;;;;;;;54.00;34.08;;;18.10;99.90;;;;;;4969611;28;20577;-68
2022/05/05 09:02:23;;;;;;;60.75;35.20;;;18.20;99.90;;;;;;4967985;28;20031;-68
2022/05/05 09:04:49;;;;;;;59.83;35.83;;;18.50;99.90;;;;;;4968046;28;20031;-68
2022/05/05 09:07:14;;;;;;;58.63;35.30;;;18.70;99.90;;;;;;4969426;28;20526;-68
2022/05/05 09:09:40;;;;;;;55.05;36.85;;;19.00;99.20;;;;;;4969888;28;20030;-68
2022/05/05 09:12:15;;;;;;;52.78;33.88;;;19.10;99.20;;;;;;4968240;28;20030;-68
2022/05/05 09:14:46;;;;;;;57.20;34.40;;;19.10;99.50;;;;;;4969601;28;20039;-68
2022/05/05 09:17:14;;;;;;;53.13;32.33;;;19.20;99.70;;;;;;4971136;28;20015;-68
2022/05/05 09:19:42;;;;;;;56.63;32.92;;;19.40;99.60;;;;;;4965333;28;20031;-68
2022/05/05 09:22:09;;;;;;;49.97;32.08;;;19.50;98.70;;;;;;4985238;28;20027;-68
2022/05/05 09:24:35;;;;;;;54.97;32.50;;;19.60;97.90;;;;;;4970538;28;20023;-68
2022/05/05 09:27:21;;;;;;;50.85;32.78;;;19.50;97.20;;;;;;4970490;28;20076;-69
2022/05/05 09:30:10;;;;;;;52.88;32.90;;;19.70;97.60;;;;;;4968015;28;20019;-68
2022/05/05 09:32:41;;;;;;;56.83;32.22;;;19.70;97.70;;;;;;4968405;28;20080;-69
2022/05/05 09:35:13;;;;;;;45.70;32.15;;;19.80;98.00;;;;;;4969222;28;20022;-68
2022/05/05 09:37:48;;;;;;;40.10;26.23;;;20.20;98.20;;;;;;4967621;28;20107;-68
2022/05/05 09:40:18;;;;;;;42.60;28.83;;;20.40;97.10;;;;;;4966509;28;20513;-69
2022/05/05 09:42:46;;;;;;;41.22;29.60;;;20.30;97.00;;;;;;4963124;28;20043;-68
2022/05/05 09:45:18;;;;;;;42.90;28.92;;;19.80;96.80;;;;;;4970659;28;20035;-68
2022/05/05 09:47:54;;;;;;;40.90;28.90;;;19.60;96.60;;;;;;4970279;28;20022;-68
2022/05/05 09:50:22;;;;;;;41.75;29.80;;;19.40;96.90;;;;;;4969611;28;20046;-67
2022/05/05 09:58:22;;;;;;;43.60;29.88;;;19.50;98.10;;;;;;4966352;28;20037;-68
2022/05/05 10:04:03;;;;;;;44.72;28.17;;;19.50;97.60;;;;;;4962415;28;20114;-67
2022/05/05 10:06:39;;;;;;;37.45;25.15;;;19.40;97.20;;;;;;4965329;28;20490;-67
2022/05/05 10:09:07;;;;;;;38.42;24.63;;;19.20;97.30;;;;;;4968084;28;20022;-67
2022/05/05 10:11:34;;;;;;;33.97;24.20;;;19.20;97.10;;;;;;4962531;28;20687;-68
2022/05/05 10:14:01;;;;;;;38.63;24.88;;;19.30;97.80;;;;;;4966355;28;20038;-68
2022/05/05 10:16:30;;;;;;;32.30;21.67;;;19.40;97.20;;;;;;4968849;28;20065;-66
2022/05/05 10:18:56;;;;;;;33.28;22.92;;;19.40;96.30;;;;;;4969313;28;20051;-68
2022/05/05 10:21:54;;;;;;;40.35;24.17;;;19.50;96.90;;;;;;4967480;28;20456;-68
2022/05/05 10:24:28;;;;;;;31.63;21.25;;;19.60;96.40;;;;;;4967337;28;20026;-68
2022/05/05 10:26:59;;;;;;;35.45;19.85;;;19.70;96.10;;;;;;4968042;28;20471;-68
2022/05/05 10:29:41;;;;;;;30.30;20.75;;;19.70;96.40;;;;;;4971396;28;20106;-70
2022/05/05 10:32:19;;;;;;;;;;;19.80;96.00;;;;;;4966455;28;20114;-70
2022/05/05 10:34:52;;;;;;;24.80;16.60;;;20.00;96.30;;;;;;4965370;28;19918;-70
2022/05/05 10:37:20;;;;;;;;;;;20.10;96.20;;;;;;4965906;28;20398;-69
2022/05/05 10:40:02;;;;;;;31.77;22.08;;;20.30;95.20;;;;;;4966007;28;20449;-67
2022/05/05 10:42:30;;;;;;;27.75;19.60;;;20.80;95.30;;;;;;4955481;28;20491;-67
2022/05/05 10:45:10;;;;;;;27.65;20.20;;;21.30;95.00;;;;;;4973195;28;20468;-67
2022/05/05 10:48:01;;;;;;;32.95;23.50;;;21.60;93.30;;;;;;4966980;28;20092;-67
2022/05/05 10:50:39;;;;;;;37.80;24.20;;;21.80;94.80;;;;;;4965988;28;20064;-67
2022/05/05 10:53:07;;;;;;;39.17;27.27;;;22.10;94.20;;;;;;4969420;28;20024;-67
2022/05/05 10:55:46;;;;;;;39.50;24.90;;;22.30;93.70;;;;;;4968863;28;20616;-67
2022/05/05 10:58:12;;;;;;;33.83;23.98;;;22.40;94.00;;;;;;4969447;28;20030;-67
2022/05/05 11:00:44;;;;;;;33.85;22.08;;;22.40;93.20;;;;;;4967326;28;20030;-67
2022/05/05 11:03:10;;;;;;;;;;;22.30;92.80;;;;;;4965992;28;20110;-67
2022/05/05 11:05:39;;;;;;;37.15;23.02;;;22.00;93.20;;;;;;4968701;28;19997;-67
2022/05/05 11:08:08;;;;;;;34.92;24.33;;;21.90;94.00;;;;;;4969094;28;20098;-67
2022/05/05 11:11:39;;;;;;;39.45;24.30;;;21.60;93.80;;;;;;4968733;28;20035;-67
2022/05/05 11:13:45;;;;;;;43.40;27.15;;;21.50;95.00;;;;;;4968505;28;20059;-67
2022/05/05 11:22:19;;;;;;;35.42;24.95;;;21.10;94.50;;;;;;4966230;28;20126;-67
2022/05/05 11:24:47;;;;;;;35.03;24.38;;;21.20;94.50;;;;;;4967367;28;20035;-67
2022/05/05 11:27:18;;;;;;;35.47;24.08;;;21.20;94.90;;;;;;4969278;28;20048;-67
2022/05/05 11:29:57;;;;;;;31.10;22.67;;;21.30;94.70;;;;;;4966542;28;20027;-67
2022/05/05 11:32:30;;;;;;;31.17;23.48;;;21.20;94.60;;;;;;4968549;28;20027;-67
2022/05/05 11:34:56;;;;;;;35.70;24.63;;;21.00;94.50;;;;;;4963888;28;20034;-67
2022/05/05 11:37:26;;;;;;;35.42;26.00;;;21.10;94.30;;;;;;4967249;28;20023;-67
2022/05/05 11:39:51;;;;;;;33.67;24.30;;;21.00;94.60;;;;;;4967809;28;20038;-67
2022/05/05 11:42:18;;;;;;;37.33;24.00;;;21.00;94.30;;;;;;4967894;28;20027;-67
2022/05/05 11:44:45;;;;;;;35.08;24.80;;;21.00;94.70;;;;;;4968878;28;20019;-67
2022/05/05 11:47:12;;;;;;;37.17;25.75;;;21.00;94.50;;;;;;4967031;28;20065;-67
2022/05/05 11:49:39;;;;;;;34.22;23.08;;;20.90;94.70;;;;;;4968424;28;20445;-67
2022/05/05 11:52:05;;;;;;;30.55;22.77;;;21.00;94.60;;;;;;4967196;28;20026;-67
2022/05/05 11:54:33;;;;;;;30.05;22.25;;;20.90;93.80;;;;;;4967985;28;20502;-67
2022/05/05 11:57:00;;;;;;;31.60;23.35;;;21.00;93.90;;;;;;4966644;28;20026;-67
2022/05/05 12:02:18;;;;;;;32.10;22.00;;;20.90;93.50;;;;;;4965378;28;20105;-67
2022/05/05 12:04:46;;;;;;;32.53;21.65;;;20.90;94.10;;;;;;4966348;28;20023;-67
2022/05/05 12:07:20;;;;;;;31.70;20.02;;;20.90;93.80;;;;;;4966957;28;20030;-67
2022/05/05 12:09:50;;;;;;;30.10;19.92;;;21.00;94.60;;;;;;4968168;28;20031;-67
2022/05/05 12:12:21;;;;;;;28.83;20.13;;;21.20;94.10;;;;;;4965534;28;20035;-67
2022/05/05 12:14:49;;;;;;;23.75;18.27;;;21.10;93.50;;;;;;4964745;28;20117;-67
2022/05/05 12:17:20;;;;;;;25.80;19.13;;;21.10;93.40;;;;;;4967275;28;20072;-67
2022/05/05 12:19:53;;;;;;;22.63;17.75;;;21.00;93.60;;;;;;4962739;28;20062;-67
2022/05/05 12:22:28;;;;;;;26.60;17.50;;;21.20;93.00;;;;;;4966499;28;20133;-67
2022/05/05 12:24:53;;;;;;;24.33;17.30;;;21.20;93.30;;;;;;4964982;28;20416;-67
2022/05/05 12:27:23;;;;;;;22.67;16.27;;;21.30;92.10;;;;;;4966420;28;20031;-67
2022/05/05 12:29:49;;;;;;;24.45;17.60;;;21.30;92.80;;;;;;4966549;28;20072;-67
2022/05/05 12:32:17;;;;;;;23.67;16.58;;;21.30;91.90;;;;;;4963609;28;20023;-68
2022/05/05 12:34:44;;;;;;;23.75;15.85;;;21.40;92.50;;;;;;4965446;28;20073;-67
2022/05/05 12:37:17;;;;;;;20.17;15.50;;;21.40;92.40;;;;;;4968068;28;20395;-67
2022/05/05 12:40:01;;;;;;;25.73;15.90;;;21.50;92.60;;;;;;4968669;28;20035;-68
2022/05/05 12:42:47;;;;;;;19.65;14.68;;;21.60;92.00;;;;;;4966106;28;20030;-67
2022/05/05 12:45:29;;;;;;;17.35;13.90;;;21.60;92.10;;;;;;4965541;28;20480;-67
2022/05/05 12:47:58;;;;;;;18.23;14.90;;;21.60;91.80;;;;;;4967125;28;20035;-65
2022/05/05 12:50:31;;;;;;;25.95;19.38;;;21.60;91.50;;;;;;4965226;28;20259;-67
2022/05/05 13:01:41;;;;;;;31.40;23.42;;;21.50;93.00;;;;;;4968296;28;20053;-67
2022/05/05 13:04:12;;;;;;;29.70;21.73;;;21.60;93.50;;;;;;4959232;28;20426;-67
2022/05/05 13:06:39;;;;;;;35.20;25.50;;;21.60;93.00;;;;;;4967112;28;20048;-67
2022/05/05 13:09:08;;;;;;;32.13;25.17;;;21.60;93.00;;;;;;4969292;28;20035;-67
2022/05/05 13:11:34;;;;;;;36.30;25.00;;;21.70;92.60;;;;;;4968616;28;20027;-67
2022/05/05 13:14:02;;;;;;;29.15;22.42;;;21.80;93.00;;;;;;4967495;28;20081;-67
2022/05/05 13:16:29;;;;;;;29.88;21.40;;;21.80;92.80;;;;;;4970204;28;20035;-67
2022/05/05 13:18:56;;;;;;;28.80;20.35;;;21.90;92.50;;;;;;4967174;28;20469;-67
2022/05/05 13:21:22;;;;;;;26.55;20.27;;;22.00;92.70;;;;;;4968380;28;20038;-67
2022/05/05 13:23:47;;;;;;;25.55;20.35;;;22.00;92.20;;;;;;4969840;28;20015;-67